aviador You're here:

SCGZ Decoded Metar

PUERTO WILLIAMS in CHILE
Report Time2017-09-25 16:00:00
UTC Time2017-09-25 16:48:55
Flight Rules vfr VFR
Wind250° at 17 Gusting to 27 kt
W.Decomp.*RWY 26: 15.8 kt HW 6.4 kt LCW
W.Rank250° ranks 2
Current wind is above 250° avg. (12.7)
Visibility9999 m
Phenomena:N/A
Clouds:Few 036 Hf
Scattered 050 Hf
Broken 090 Hf
Expected CloudBase > 3,600 ft AGL from Temp-Dew spread
Ceiling9,000 ft
Temp05°C (ISA -10)
Dew Point-4°C (53% RH)
AAT-3.6°C
QNH1005 hPa
Density Alt-761 ft
Elevation88 ft
Report Wrong Elevation
Raw Report
METAR SCGZ 251600Z 25017G27KT 9999 FEW036 SCT050 BKN090 05/M04 Q1005=

Extra information for SCGZ:More info

Airport Information Weather charts Add Link Nearby Venues Social comments